Time;durP1;ratioP1;P1;durP2;ratioP2;P2;SDS_P1;SDS_P2;PMS_P1;PMS_P2;Temp;Humidity;BMP_temperature;BMP_pressure;BME280_temperature;BME280_humidity;BME280_pressure;Samples;Min_cycle;Max_cycle;Signal;HPM_P1;HPM_P2
2022/05/08 00:00:55;;;;;;;11.13;10.00;;;9.80;99.90;;;;;;6274093;22;20172;-70
2022/05/08 00:03:22;;;;;;;11.50;10.35;;;9.90;99.90;;;;;;6274295;22;20233;-70
2022/05/08 00:05:50;;;;;;;11.32;10.20;;;9.80;99.90;;;;;;6274516;22;20180;-70
2022/05/08 00:08:16;;;;;;;11.20;10.10;;;9.90;99.90;;;;;;6272907;22;20195;-70
2022/05/08 00:10:43;;;;;;;12.55;11.35;;;9.80;99.90;;;;;;6274640;22;20182;-70
2022/05/08 00:13:10;;;;;;;12.20;10.80;;;9.80;99.90;;;;;;6274563;22;20176;-70
2022/05/08 00:15:36;;;;;;;11.85;10.75;;;9.70;99.90;;;;;;6274286;22;20183;-70
2022/05/08 00:18:03;;;;;;;11.63;10.43;;;9.70;99.90;;;;;;6273614;22;20202;-72
2022/05/08 00:20:31;;;;;;;11.05;10.05;;;9.60;99.90;;;;;;6273924;22;20644;-72
2022/05/08 00:22:59;;;;;;;10.68;9.68;;;9.60;99.90;;;;;;6274381;22;20234;-72
2022/05/08 00:25:27;;;;;;;11.15;10.15;;;9.50;99.90;;;;;;6273914;22;20183;-72
2022/05/08 00:27:54;;;;;;;10.65;9.70;;;9.50;99.90;;;;;;6274184;22;20196;-70
2022/05/08 00:30:21;;;;;;;12.45;11.35;;;9.50;99.90;;;;;;6273692;22;20172;-70
2022/05/08 00:32:47;;;;;;;12.68;11.48;;;9.40;99.90;;;;;;6274185;22;20172;-70
2022/05/08 00:35:14;;;;;;;11.63;10.52;;;9.40;99.90;;;;;;6274138;22;20180;-70
2022/05/08 00:37:41;;;;;;;10.27;9.27;;;9.40;99.90;;;;;;6273677;22;20203;-70
2022/05/08 00:40:09;;;;;;;11.93;10.73;;;9.30;99.90;;;;;;6273603;22;20266;-70
2022/05/08 00:42:36;;;;;;;11.50;10.40;;;9.40;99.90;;;;;;6274100;22;20179;-70
2022/05/08 00:45:04;;;;;;;12.23;10.95;;;9.40;99.90;;;;;;6274022;22;20198;-69
2022/05/08 00:47:31;;;;;;;11.80;10.70;;;9.50;99.90;;;;;;6273772;22;20279;-70
2022/05/08 00:49:58;;;;;;;11.68;10.57;;;9.40;99.90;;;;;;6273320;22;20176;-70
2022/05/08 00:52:27;;;;;;;12.80;11.50;;;9.50;99.90;;;;;;6274284;22;20172;-70
2022/05/08 00:54:54;;;;;;;10.80;9.80;;;9.40;99.90;;;;;;6273964;22;20187;-70
2022/05/08 00:57:22;;;;;;;13.93;11.82;;;9.40;99.90;;;;;;6273963;22;20190;-70
2022/05/08 00:59:49;;;;;;;11.43;10.30;;;9.50;99.90;;;;;;6273003;22;20172;-70
2022/05/08 01:02:17;;;;;;;11.25;10.20;;;9.40;99.90;;;;;;6273845;22;20184;-70
2022/05/08 01:04:44;;;;;;;11.70;10.60;;;9.30;99.90;;;;;;6273761;22;20179;-70
2022/05/08 01:07:12;;;;;;;12.70;11.43;;;9.30;99.90;;;;;;6273299;22;20211;-70
2022/05/08 01:09:39;;;;;;;12.23;10.98;;;9.30;99.90;;;;;;6272774;22;20656;-69
2022/05/08 01:12:08;;;;;;;10.40;9.40;;;9.30;99.90;;;;;;6273567;22;20183;-70
2022/05/08 01:14:36;;;;;;;11.75;10.50;;;9.30;99.90;;;;;;6273946;22;20176;-70
2022/05/08 01:17:03;;;;;;;12.52;11.30;;;9.20;99.90;;;;;;6273121;22;20172;-69
2022/05/08 01:19:30;;;;;;;12.93;11.63;;;9.20;99.90;;;;;;6273115;22;20196;-70
2022/05/08 01:21:58;;;;;;;11.60;10.50;;;9.20;99.90;;;;;;6273132;22;20183;-70
2022/05/08 01:24:25;;;;;;;11.63;10.52;;;9.20;99.90;;;;;;6273959;22;20179;-69
2022/05/08 01:26:51;;;;;;;11.30;10.20;;;9.20;99.90;;;;;;6273149;22;20188;-70
2022/05/08 01:29:18;;;;;;;11.68;10.48;;;9.20;99.90;;;;;;6272110;22;20680;-70
2022/05/08 01:31:45;;;;;;;12.43;10.85;;;9.10;99.90;;;;;;6273794;22;20172;-70
2022/05/08 01:34:12;;;;;;;13.70;12.30;;;9.10;99.90;;;;;;6273375;22;20229;-72
2022/05/08 01:36:41;;;;;;;12.23;11.02;;;9.00;99.90;;;;;;6273418;22;20637;-72
2022/05/08 01:39:09;;;;;;;12.30;11.00;;;9.00;99.90;;;;;;6272668;22;20192;-69
2022/05/08 01:41:36;;;;;;;12.95;11.68;;;9.00;99.90;;;;;;6273715;22;20175;-70
2022/05/08 01:44:03;;;;;;;12.63;11.32;;;9.00;99.90;;;;;;6273451;22;20176;-69
2022/05/08 01:46:30;;;;;;;14.15;11.40;;;9.00;99.90;;;;;;6273352;22;20179;-70
2022/05/08 01:48:55;;;;;;;13.43;12.02;;;9.00;99.90;;;;;;6272793;22;20196;-72
2022/05/08 01:51:23;;;;;;;12.40;10.60;;;9.10;99.90;;;;;;6273555;22;20179;-72
2022/05/08 01:53:49;;;;;;;12.38;11.18;;;9.20;99.90;;;;;;6273877;22;20176;-72
2022/05/08 01:56:19;;;;;;;12.02;10.75;;;9.10;99.90;;;;;;6272936;22;20175;-72
2022/05/08 01:58:47;;;;;;;13.10;10.35;;;9.10;99.90;;;;;;6282995;22;20183;-72
2022/05/08 02:01:15;;;;;;;13.48;11.82;;;9.00;99.90;;;;;;6275748;22;20599;-72
2022/05/08 02:03:42;;;;;;;12.23;11.02;;;8.90;99.90;;;;;;6275267;22;20182;-72
2022/05/08 02:06:09;;;;;;;11.48;10.35;;;8.80;99.90;;;;;;6275282;22;20176;-72
2022/05/08 02:08:35;;;;;;;12.25;11.05;;;8.80;99.90;;;;;;6274785;22;20195;-72
2022/05/08 02:11:03;;;;;;;13.32;10.45;;;8.80;99.90;;;;;;6275269;22;20175;-72
2022/05/08 02:13:31;;;;;;;14.13;12.73;;;8.70;99.90;;;;;;6275394;22;20212;-71
2022/05/08 02:15:58;;;;;;;13.35;12.05;;;8.80;99.90;;;;;;6275342;22;20176;-72
2022/05/08 02:18:25;;;;;;;12.57;11.45;;;8.80;99.90;;;;;;6274788;22;20212;-72
2022/05/08 02:20:52;;;;;;;13.90;12.50;;;8.70;99.90;;;;;;6275018;22;20183;-72
2022/05/08 02:23:18;;;;;;;12.80;11.65;;;8.70;99.90;;;;;;6275553;22;20175;-72
2022/05/08 02:25:45;;;;;;;12.57;11.32;;;8.70;99.90;;;;;;6274921;22;20695;-72
2022/05/08 02:28:12;;;;;;;13.45;12.15;;;8.80;99.90;;;;;;6274431;22;20258;-72
2022/05/08 02:30:40;;;;;;;12.60;11.35;;;8.70;99.90;;;;;;6275288;22;20259;-72
2022/05/08 02:33:06;;;;;;;13.88;12.40;;;8.70;99.90;;;;;;6275317;22;20633;-72
2022/05/08 02:35:34;;;;;;;13.50;12.15;;;8.70;99.90;;;;;;6275630;22;20514;-72
2022/05/08 02:38:01;;;;;;;13.25;11.85;;;8.70;99.90;;;;;;6274394;22;20187;-72
2022/05/08 02:40:27;;;;;;;14.15;12.75;;;8.70;99.90;;;;;;6275468;22;20179;-72
2022/05/08 02:42:54;;;;;;;12.48;11.27;;;8.70;99.90;;;;;;6275095;22;20180;-72
2022/05/08 02:45:22;;;;;;;13.38;12.05;;;8.60;99.90;;;;;;6275319;22;20183;-72
2022/05/08 02:47:50;;;;;;;14.98;13.48;;;8.60;99.90;;;;;;6274800;22;20222;-72
2022/05/08 02:50:17;;;;;;;16.17;12.07;;;8.60;99.90;;;;;;6274708;22;20176;-72
2022/05/08 02:52:44;;;;;;;14.07;12.73;;;8.60;99.90;;;;;;6275012;22;20271;-72
2022/05/08 03:00:43;;;;;;;14.98;13.10;;;8.50;99.90;;;;;;6274903;22;20190;-69
2022/05/08 03:03:11;;;;;;;15.00;13.40;;;8.50;99.90;;;;;;6275130;22;20175;-69
2022/05/08 03:05:39;;;;;;;16.70;13.82;;;8.50;99.90;;;;;;6274900;22;20176;-69
2022/05/08 03:08:06;;;;;;;14.77;13.27;;;8.40;99.90;;;;;;6273878;22;20196;-70
2022/05/08 03:11:25;;;;;;;14.63;13.13;;;8.40;99.90;;;;;;6274621;22;20172;-69
2022/05/08 03:13:20;;;;;;;13.40;12.00;;;8.40;99.90;;;;;;6274508;22;20171;-69
2022/05/08 03:15:47;;;;;;;13.90;12.50;;;8.40;99.90;;;;;;6275064;22;20259;-69
2022/05/08 03:18:15;;;;;;;14.80;13.30;;;8.30;99.90;;;;;;6273787;22;20196;-69
2022/05/08 03:20:41;;;;;;;15.75;14.02;;;8.30;99.90;;;;;;6275105;22;20195;-69
2022/05/08 03:23:08;;;;;;;16.40;13.60;;;8.40;99.90;;;;;;6274208;22;20176;-69
2022/05/08 03:25:35;;;;;;;14.70;13.20;;;8.40;99.90;;;;;;6274727;22;20647;-69
2022/05/08 03:28:02;;;;;;;16.85;13.75;;;8.40;99.90;;;;;;6273755;22;20603;-70
2022/05/08 03:30:29;;;;;;;16.17;14.48;;;8.30;99.90;;;;;;6275000;22;20194;-70
2022/05/08 03:32:57;;;;;;;15.93;14.40;;;8.30;99.90;;;;;;6274834;22;20180;-72
2022/05/08 03:35:25;;;;;;;17.20;14.45;;;8.30;99.90;;;;;;6274590;22;20188;-72
2022/05/08 03:37:52;;;;;;;16.20;14.52;;;8.30;99.90;;;;;;6274346;22;20677;-69
2022/05/08 03:40:18;;;;;;;16.88;14.15;;;8.20;99.90;;;;;;6273658;22;20567;-69
2022/05/08 03:42:45;;;;;;;15.50;13.90;;;8.20;99.90;;;;;;6274780;22;20176;-69
2022/05/08 03:45:12;;;;;;;15.13;13.63;;;8.20;99.90;;;;;;6274060;22;20655;-69
2022/05/08 03:47:38;;;;;;;14.90;13.32;;;8.10;99.90;;;;;;6274457;22;20226;-73
2022/05/08 03:50:06;;;;;;;15.45;13.48;;;8.10;99.90;;;;;;6273952;22;20178;-72
2022/05/08 03:52:35;;;;;;;15.90;14.38;;;8.10;99.90;;;;;;6274143;22;20199;-72
2022/05/08 03:55:02;;;;;;;16.65;15.05;;;8.10;99.90;;;;;;6274137;22;20199;-73
2022/05/08 03:57:28;;;;;;;16.40;14.65;;;8.10;99.90;;;;;;6273991;22;20709;-72
2022/05/08 03:59:55;;;;;;;18.67;15.32;;;8.10;99.90;;;;;;6273864;22;20176;-72
2022/05/08 04:02:22;;;;;;;16.40;14.70;;;8.10;99.90;;;;;;6273507;22;20180;-72
2022/05/08 04:04:48;;;;;;;15.88;14.35;;;8.20;99.90;;;;;;6274318;22;20659;-72
2022/05/08 04:07:24;;;;;;;21.77;14.40;;;8.30;99.90;;;;;;6269720;22;20211;-93
2022/05/08 04:09:52;;;;;;;17.45;15.63;;;8.30;99.90;;;;;;6281222;22;20503;-72
2022/05/08 04:12:19;;;;;;;17.05;15.25;;;8.30;99.90;;;;;;6274613;22;20176;-71
2022/05/08 04:14:46;;;;;;;17.10;15.05;;;8.20;99.90;;;;;;6274220;22;20183;-71
2022/05/08 04:17:13;;;;;;;15.88;14.27;;;8.20;99.90;;;;;;6274444;22;20179;-73
2022/05/08 04:19:39;;;;;;;17.23;15.43;;;8.20;99.90;;;;;;6273370;22;20209;-72
2022/05/08 04:24:52;;;;;;;18.63;16.63;;;8.10;99.90;;;;;;6274197;22;20663;-72
2022/05/08 04:27:19;;;;;;;20.10;18.00;;;8.10;99.90;;;;;;6274261;22;20186;-72
2022/05/08 04:29:45;;;;;;;23.83;17.20;;;8.20;99.90;;;;;;6273480;22;20195;-72
2022/05/08 04:32:12;;;;;;;19.27;17.25;;;8.10;99.90;;;;;;6274142;22;20179;-71
2022/05/08 04:34:39;;;;;;;17.90;15.77;;;8.20;99.90;;;;;;6274578;22;20187;-72
2022/05/08 04:37:05;;;;;;;17.42;15.63;;;8.20;99.90;;;;;;6274175;22;20182;-72
2022/05/08 04:39:32;;;;;;;17.20;15.40;;;8.20;99.90;;;;;;6273483;22;20251;-73
2022/05/08 04:42:01;;;;;;;19.20;17.05;;;8.20;99.90;;;;;;6274368;22;20176;-73
2022/05/08 04:44:28;;;;;;;17.65;15.85;;;8.30;99.90;;;;;;6274026;22;20176;-72
2022/05/08 04:46:55;;;;;;;19.15;17.10;;;8.30;99.90;;;;;;6274301;22;20176;-72
2022/05/08 04:49:21;;;;;;;17.45;15.65;;;8.40;99.90;;;;;;6273031;22;20200;-71
2022/05/08 04:51:48;;;;;;;17.52;15.82;;;8.40;99.90;;;;;;6274071;22;20171;-71
2022/05/08 04:54:15;;;;;;;18.63;16.63;;;8.40;99.90;;;;;;6273812;22;20172;-71
2022/05/08 04:56:42;;;;;;;22.35;20.13;;;8.40;99.90;;;;;;6272619;22;20418;-74
2022/05/08 04:59:10;;;;;;;20.15;18.25;;;8.50;99.90;;;;;;6273316;22;20191;-71
2022/05/08 05:01:37;;;;;;;21.50;17.50;;;8.60;99.90;;;;;;6273181;22;20659;-72
2022/05/08 05:04:04;;;;;;;21.33;19.23;;;8.60;99.90;;;;;;6274116;22;20180;-71
2022/05/08 05:06:31;;;;;;;18.55;16.65;;;8.60;99.90;;;;;;6273048;22;20644;-71
2022/05/08 05:08:58;;;;;;;20.15;17.67;;;8.60;99.90;;;;;;6272664;22;20249;-71
2022/05/08 05:11:24;;;;;;;19.83;17.75;;;8.60;99.90;;;;;;6273048;22;20191;-71
2022/05/08 05:13:51;;;;;;;18.60;16.63;;;8.60;99.90;;;;;;6273893;22;20179;-70
2022/05/08 05:16:19;;;;;;;20.20;18.10;;;8.60;99.90;;;;;;6273327;22;20176;-71
2022/05/08 05:18:46;;;;;;;22.38;19.65;;;8.70;99.90;;;;;;6272827;22;20196;-72
2022/05/08 05:21:12;;;;;;;24.42;19.15;;;8.70;99.90;;;;;;6274841;22;20176;-70
2022/05/08 05:23:39;;;;;;;23.05;19.02;;;8.80;99.90;;;;;;6273310;22;20183;-71
2022/05/08 05:26:06;;;;;;;23.58;20.70;;;8.90;99.90;;;;;;6273573;22;20640;-70
2022/05/08 05:28:32;;;;;;;22.45;20.10;;;8.90;99.90;;;;;;6272415;22;20206;-70
2022/05/08 05:30:59;;;;;;;24.73;20.17;;;8.90;99.90;;;;;;6273962;22;20230;-71
2022/05/08 05:33:27;;;;;;;21.35;18.60;;;9.00;99.90;;;;;;6273545;22;20492;-71
2022/05/08 05:35:54;;;;;;;19.83;17.85;;;9.00;99.90;;;;;;6273276;22;20182;-73
2022/05/08 05:38:20;;;;;;;19.75;17.73;;;9.10;99.90;;;;;;6272339;22;20676;-72
2022/05/08 05:40:47;;;;;;;21.05;18.95;;;9.20;99.90;;;;;;6273091;22;20580;-71
2022/05/08 05:43:14;;;;;;;19.85;17.85;;;9.30;99.90;;;;;;6273849;22;20175;-71
2022/05/08 05:45:41;;;;;;;21.85;18.88;;;9.30;99.90;;;;;;6273263;22;20271;-71
2022/05/08 05:48:07;;;;;;;20.15;18.33;;;9.30;99.90;;;;;;6273094;22;20192;-72
2022/05/08 05:50:35;;;;;;;20.77;18.73;;;9.40;99.90;;;;;;6273802;22;20167;-72
2022/05/08 05:53:01;;;;;;;22.75;19.88;;;9.50;99.90;;;;;;6273351;22;20175;-72
2022/05/08 05:55:28;;;;;;;19.77;17.77;;;9.50;99.90;;;;;;6273689;22;20172;-72
2022/05/08 05:57:55;;;;;;;20.00;17.90;;;9.60;99.90;;;;;;6273304;22;20249;-72
2022/05/08 06:00:22;;;;;;;17.10;15.10;;;9.70;99.90;;;;;;6273204;22;20172;-72
2022/05/08 06:02:49;;;;;;;17.60;15.80;;;9.80;99.90;;;;;;6273495;22;20239;-72
2022/05/08 06:05:15;;;;;;;18.10;15.98;;;9.90;99.90;;;;;;6273667;22;20172;-72
2022/05/08 06:07:43;;;;;;;17.42;15.63;;;9.90;99.90;;;;;;6272720;22;21107;-72
2022/05/08 06:10:14;;;;;;;18.17;16.27;;;10.00;99.90;;;;;;6272457;22;20663;-71
2022/05/08 06:12:40;;;;;;;19.88;15.93;;;10.10;99.90;;;;;;6273511;22;20176;-72
2022/05/08 06:15:08;;;;;;;16.17;14.50;;;10.20;99.90;;;;;;6273455;22;20182;-72
2022/05/08 06:17:35;;;;;;;18.15;15.65;;;10.30;99.90;;;;;;6273163;22;20226;-72
2022/05/08 06:20:02;;;;;;;17.23;15.27;;;10.40;99.90;;;;;;6272189;22;20176;-72
2022/05/08 06:22:29;;;;;;;16.90;15.10;;;10.50;99.90;;;;;;6273580;22;20172;-72
2022/05/08 06:24:57;;;;;;;15.93;14.27;;;10.70;99.90;;;;;;6273188;22;20505;-73
2022/05/08 06:27:25;;;;;;;16.45;14.85;;;10.80;99.90;;;;;;6272117;22;20172;-72
2022/05/08 06:29:51;;;;;;;15.57;13.90;;;10.90;99.90;;;;;;6272791;22;20195;-72
2022/05/08 06:32:18;;;;;;;18.45;15.93;;;11.10;99.90;;;;;;6273593;22;20519;-72
2022/05/08 06:34:45;;;;;;;16.50;14.80;;;11.20;99.90;;;;;;6273524;22;20179;-72
2022/05/08 06:37:12;;;;;;;17.10;14.95;;;11.30;99.90;;;;;;6273357;22;20517;-72
2022/05/08 06:39:38;;;;;;;16.65;15.02;;;11.40;99.90;;;;;;6272580;22;20198;-72
2022/05/08 06:42:07;;;;;;;17.75;15.95;;;11.60;99.90;;;;;;6274037;22;20180;-72
2022/05/08 06:44:34;;;;;;;18.27;15.80;;;11.70;99.90;;;;;;6273572;22;20652;-72
2022/05/08 06:47:01;;;;;;;17.37;15.70;;;11.80;99.90;;;;;;6275708;22;20183;-72
2022/05/08 06:49:29;;;;;;;18.48;16.67;;;12.00;99.90;;;;;;6274774;22;20443;-72
2022/05/08 06:51:56;;;;;;;17.80;16.00;;;12.10;99.90;;;;;;6275659;22;20179;-72
2022/05/08 06:54:23;;;;;;;19.77;17.27;;;12.20;99.90;;;;;;6275267;22;20424;-72
2022/05/08 06:56:51;;;;;;;17.00;15.38;;;12.40;99.90;;;;;;6275050;22;20184;-72
2022/05/08 07:02:04;;;;;;;17.30;15.48;;;12.60;99.90;;;;;;6275366;22;20162;-72
2022/05/08 07:04:30;;;;;;;18.47;16.57;;;12.80;99.90;;;;;;6275068;22;20176;-72
2022/05/08 07:06:57;;;;;;;19.63;17.67;;;13.00;99.90;;;;;;6274999;22;20415;-72
2022/05/08 07:09:24;;;;;;;19.30;17.20;;;13.10;99.90;;;;;;6274050;22;20500;-72
2022/05/08 07:11:50;;;;;;;17.30;15.43;;;13.30;99.90;;;;;;6275210;22;20748;-72
2022/05/08 07:14:19;;;;;;;16.50;14.77;;;13.40;99.90;;;;;;6275351;22;20425;-72
2022/05/08 07:16:45;;;;;;;17.30;15.20;;;13.60;99.90;;;;;;6274952;22;20454;-72
2022/05/08 07:19:12;;;;;;;17.90;16.00;;;13.60;99.90;;;;;;6274181;22;20434;-72
2022/05/08 07:21:39;;;;;;;17.80;14.93;;;13.80;99.90;;;;;;6275392;22;20419;-72
2022/05/08 07:24:07;;;;;;;16.73;15.10;;;13.90;99.90;;;;;;6275924;22;20414;-72
2022/05/08 07:26:34;;;;;;;15.83;14.33;;;14.10;99.90;;;;;;6274495;22;20513;-72
2022/05/08 07:29:00;;;;;;;14.27;12.97;;;14.30;99.90;;;;;;6274071;22;20447;-72
2022/05/08 07:31:29;;;;;;;16.97;15.17;;;14.40;99.90;;;;;;6274704;22;20425;-72
2022/05/08 07:36:36;;;;;;;15.50;14.10;;;14.70;99.90;;;;;;6272598;22;20549;-72
2022/05/08 07:39:03;;;;;;;13.60;12.33;;;14.90;99.90;;;;;;6274477;22;20426;-72
2022/05/08 07:41:30;;;;;;;14.73;13.33;;;15.00;99.90;;;;;;6274757;22;20418;-72
2022/05/08 07:43:57;;;;;;;14.57;13.17;;;15.20;99.90;;;;;;6274795;22;20505;-72
2022/05/08 07:46:25;;;;;;;13.03;11.83;;;15.40;99.90;;;;;;6274803;22;20421;-72
2022/05/08 07:48:53;;;;;;;13.80;12.60;;;15.60;99.90;;;;;;6273414;22;20452;-72
2022/05/08 07:51:20;;;;;;;13.33;12.10;;;15.70;99.90;;;;;;6274961;22;20759;-72
2022/05/08 07:53:46;;;;;;;13.57;12.37;;;15.80;99.90;;;;;;6274525;22;20441;-72
2022/05/08 07:56:13;;;;;;;13.07;11.77;;;16.00;99.90;;;;;;6273853;22;20911;-72
2022/05/08 07:58:40;;;;;;;11.60;10.40;;;16.10;99.90;;;;;;6273476;22;20434;-72
2022/05/08 08:01:07;;;;;;;12.57;11.20;;;16.20;99.90;;;;;;6275009;22;20789;-72
2022/05/08 08:03:34;;;;;;;11.47;10.47;;;16.30;99.90;;;;;;6274316;22;20418;-72
2022/05/08 08:06:04;;;;;;;11.73;10.70;;;16.40;99.90;;;;;;6274364;22;20418;-72
2022/05/08 08:08:31;;;;;;;12.07;10.97;;;16.40;99.90;;;;;;6273716;22;20461;-72
2022/05/08 08:10:59;;;;;;;12.53;11.23;;;16.60;99.90;;;;;;6274424;22;20433;-71
2022/05/08 08:13:29;;;;;;;11.60;10.57;;;16.70;99.90;;;;;;6274695;22;20774;-71
2022/05/08 08:15:55;;;;;;;11.03;10.13;;;16.80;99.90;;;;;;6274307;22;20962;-71
2022/05/08 08:18:22;;;;;;;10.60;9.70;;;16.80;99.90;;;;;;6273786;22;20447;-71
2022/05/08 08:20:49;;;;;;;11.13;10.20;;;16.80;99.90;;;;;;6273855;22;20927;-71
2022/05/08 08:23:17;;;;;;;10.73;9.73;;;16.80;99.90;;;;;;6274557;22;20418;-71
2022/05/08 08:25:44;;;;;;;10.00;9.00;;;16.90;99.90;;;;;;6274308;22;20811;-71
2022/05/08 08:28:11;;;;;;;11.77;9.67;;;17.10;99.90;;;;;;6274135;22;20449;-71
2022/05/08 08:30:38;;;;;;;11.00;10.00;;;17.30;99.90;;;;;;6274171;22;20438;-71
2022/05/08 08:33:05;;;;;;;11.30;10.30;;;17.50;99.90;;;;;;6274635;22;20911;-71
2022/05/08 08:35:32;;;;;;;9.90;9.00;;;17.70;99.90;;;;;;6274261;22;20419;-71
2022/05/08 08:37:59;;;;;;;11.07;10.10;;;17.70;99.90;;;;;;6274116;22;20762;-71
2022/05/08 08:40:28;;;;;;;9.87;8.90;;;17.90;99.90;;;;;;6274258;22;20497;-71
2022/05/08 08:42:58;;;;;;;9.90;9.00;;;18.20;99.90;;;;;;6274074;22;20425;-71
2022/05/08 08:48:19;;;;;;;9.73;8.93;;;18.80;99.90;;;;;;6283387;22;20457;-72
2022/05/08 08:50:47;;;;;;;10.20;9.10;;;18.90;99.90;;;;;;6274034;22;20426;-72
2022/05/08 08:53:14;;;;;;;9.33;8.23;;;19.00;99.90;;;;;;6274314;22;20419;-71
2022/05/08 08:55:42;;;;;;;10.07;9.07;;;19.30;99.90;;;;;;6273977;22;20425;-72
2022/05/08 08:58:09;;;;;;;9.90;9.07;;;19.50;99.90;;;;;;6273290;22;20438;-72
2022/05/08 09:00:35;;;;;;;10.77;9.70;;;19.60;99.90;;;;;;6273664;22;20911;-72
2022/05/08 09:03:02;;;;;;;10.50;9.40;;;19.90;99.90;;;;;;6273895;22;20427;-72
2022/05/08 09:05:31;;;;;;;10.37;9.40;;;20.30;99.90;;;;;;6273941;22;20418;-72
2022/05/08 09:07:58;;;;;;;10.40;7.70;;;20.60;99.90;;;;;;6273540;22;20434;-72
2022/05/08 09:10:28;;;;;;;8.97;8.07;;;20.50;99.90;;;;;;6273573;22;20438;-72
2022/05/08 09:13:06;;;;;;;10.53;9.30;;;20.80;99.90;;;;;;6274085;22;20418;-72
2022/05/08 09:15:35;;;;;;;9.60;8.60;;;21.10;99.90;;;;;;6273863;22;20426;-72
2022/05/08 09:18:04;;;;;;;10.10;9.20;;;21.30;99.90;;;;;;6273276;22;20449;-72
2022/05/08 09:20:33;;;;;;;7.90;7.13;;;21.30;99.90;;;;;;6273666;22;20453;-72
2022/05/08 09:23:14;;;;;;;7.80;7.10;;;21.20;99.50;;;;;;6274580;22;20418;-72
2022/05/08 09:25:52;;;;;;;8.43;7.67;;;21.10;99.90;;;;;;6273489;22;20526;-72
2022/05/08 09:28:21;;;;;;;7.33;6.63;;;20.90;99.90;;;;;;6273277;22;20438;-72
2022/05/08 09:30:59;;;;;;;17.07;8.70;;;20.90;99.60;;;;;;6273536;22;20442;-72
2022/05/08 09:33:28;;;;;;;7.80;6.60;;;20.90;99.70;;;;;;6273675;22;20425;-72
2022/05/08 09:35:55;;;;;;;8.20;7.40;;;20.90;99.60;;;;;;6273671;22;20418;-72
2022/05/08 09:38:22;;;;;;;7.10;6.50;;;21.00;99.70;;;;;;6273018;22;20438;-72
2022/05/08 09:41:05;;;;;;;6.47;5.87;;;20.90;99.60;;;;;;6273601;22;20414;-72
2022/05/08 09:43:34;;;;;;;7.80;7.20;;;21.10;99.30;;;;;;6273923;22;20450;-72
2022/05/08 09:46:02;;;;;;;7.87;7.07;;;21.20;99.00;;;;;;6273569;22;20449;-72
2022/05/08 09:48:30;;;;;;;8.07;7.30;;;21.40;99.00;;;;;;6272802;22;20438;-72
2022/05/08 09:50:58;;;;;;;8.10;7.40;;;21.60;98.20;;;;;;6273388;22;20474;-72
2022/05/08 09:53:25;;;;;;;7.37;6.70;;;21.70;98.80;;;;;;6273496;22;20825;-72
2022/05/08 09:55:57;;;;;;;8.10;7.30;;;21.90;97.60;;;;;;6273585;22;20445;-71
2022/05/08 09:58:24;;;;;;;6.60;5.90;;;21.80;97.80;;;;;;6273054;22;20442;-72
2022/05/08 10:00:54;;;;;;;6.60;6.00;;;21.80;96.60;;;;;;6273685;22;20414;-72
2022/05/08 10:03:21;;;;;;;7.50;6.70;;;22.20;97.60;;;;;;6273617;22;20402;-72
2022/05/08 10:05:49;;;;;;;7.03;6.30;;;22.50;97.70;;;;;;6273577;22;20420;-72
2022/05/08 10:08:22;;;;;;;7.07;6.40;;;22.70;97.10;;;;;;6267083;22;20466;-92
2022/05/08 10:17:02;;;;;;;6.77;6.17;;;23.00;95.90;;;;;;6150204;23;20541;-71
2022/05/08 10:19:59;;;;;;;6.80;6.10;;;23.20;93.70;;;;;;6175074;23;20433;-71
2022/05/08 10:22:25;;;;;;;7.20;6.50;;;23.30;94.70;;;;;;6230599;22;20479;-71
2022/05/08 10:24:56;;;;;;;6.33;5.73;;;23.40;94.10;;;;;;6244886;23;20420;-71
2022/05/08 10:27:25;;;;;;;5.80;5.30;;;23.50;94.60;;;;;;6245121;22;20802;-72
2022/05/08 10:30:28;;;;;;;6.83;6.23;;;23.60;94.10;;;;;;6243998;23;20435;-72
2022/05/08 10:32:56;;;;;;;6.50;5.90;;;23.50;95.60;;;;;;6245064;23;20399;-71
2022/05/08 10:35:26;;;;;;;6.63;6.13;;;23.60;95.20;;;;;;6244672;23;20419;-71
2022/05/08 10:38:16;;;;;;;5.73;5.23;;;23.60;94.20;;;;;;6244863;23;20478;-71
2022/05/08 10:40:43;;;;;;;6.20;5.10;;;23.60;94.10;;;;;;6244217;23;20423;-72
2022/05/08 10:43:32;;;;;;;6.10;5.60;;;24.00;94.80;;;;;;6244853;23;20747;-71
2022/05/08 10:46:21;;;;;;;6.60;5.47;;;24.70;93.50;;;;;;6244469;23;20431;-71
2022/05/08 10:48:49;;;;;;;5.93;5.43;;;25.30;93.60;;;;;;6244140;22;20960;-71
2022/05/08 10:51:16;;;;;;;6.20;5.60;;;25.60;94.00;;;;;;6244088;23;20974;-72
2022/05/08 10:53:42;;;;;;;6.13;5.63;;;26.10;92.50;;;;;;6244815;23;20418;-71
2022/05/08 10:56:11;;;;;;;5.70;5.20;;;25.80;91.00;;;;;;6244538;23;20419;-71
2022/05/08 10:58:39;;;;;;;5.43;4.90;;;25.40;92.30;;;;;;6243916;23;20774;-71
2022/05/08 11:01:09;;;;;;;9.50;4.93;;;25.40;91.80;;;;;;6244463;23;20472;-72
2022/05/08 11:03:36;;;;;;;4.50;4.20;;;25.30;90.90;;;;;;6244212;23;20949;-71
2022/05/08 11:06:06;;;;;;;5.60;4.30;;;25.40;91.50;;;;;;6244554;23;20423;-71
2022/05/08 11:08:34;;;;;;;4.93;4.50;;;25.80;91.70;;;;;;6244314;23;20443;-71
2022/05/08 11:11:08;;;;;;;4.77;4.10;;;26.00;90.40;;;;;;6259223;22;20453;-71
2022/05/08 11:13:46;;;;;;;5.53;4.63;;;26.00;91.20;;;;;;6275376;22;20409;-71
2022/05/08 11:16:16;;;;;;;6.00;5.03;;;25.70;89.80;;;;;;6275023;22;20429;-71
2022/05/08 11:18:43;;;;;;;5.20;4.30;;;25.40;90.30;;;;;;6274230;22;20442;-70
2022/05/08 11:21:11;;;;;;;4.20;3.90;;;25.60;90.60;;;;;;6275004;22;20415;-71
2022/05/08 11:23:43;;;;;;;5.17;4.60;;;25.90;90.70;;;;;;6274552;22;20509;-71
2022/05/08 11:26:11;;;;;;;4.80;4.40;;;26.00;89.10;;;;;;6275345;22;20764;-71
2022/05/08 11:28:48;;;;;;;4.10;3.70;;;25.90;88.40;;;;;;6274284;22;20442;-71
2022/05/08 11:31:16;;;;;;;4.70;4.30;;;25.70;90.50;;;;;;6274709;22;20758;-71
2022/05/08 11:36:30;;;;;;;4.37;4.00;;;25.90;86.80;;;;;;6275368;22;20879;-72
2022/05/08 11:38:59;;;;;;;4.00;3.70;;;25.80;90.10;;;;;;6274153;22;20502;-72
2022/05/08 11:41:27;;;;;;;6.07;4.47;;;26.10;88.10;;;;;;6274860;22;20762;-71
2022/05/08 11:43:56;;;;;;;5.03;4.53;;;26.10;87.20;;;;;;6274237;22;20418;-71
2022/05/08 11:46:35;;;;;;;5.23;4.80;;;26.10;90.00;;;;;;6274396;22;20420;-71
2022/05/08 11:49:12;;;;;;;4.67;4.20;;;25.90;89.20;;;;;;6274103;22;20445;-72
2022/05/08 11:51:42;;;;;;;5.90;4.33;;;26.00;88.80;;;;;;6274371;22;20427;-72
2022/05/08 11:54:19;;;;;;;5.30;4.60;;;26.00;88.90;;;;;;6272772;22;20414;-71
2022/05/08 11:56:46;;;;;;;4.13;3.80;;;26.00;88.60;;;;;;6272020;22;20186;-71
2022/05/08 11:59:17;;;;;;;3.93;3.63;;;26.30;87.60;;;;;;6271538;22;20445;-71
2022/05/08 12:01:49;;;;;;;5.00;3.40;;;26.30;87.70;;;;;;6272633;22;20395;-71
2022/05/08 12:04:23;;;;;;;4.43;3.80;;;26.50;89.10;;;;;;6272723;22;20408;-72
2022/05/08 12:07:02;;;;;;;6.57;4.40;;;26.90;86.20;;;;;;6273356;22;20419;-71
2022/05/08 12:09:29;;;;;;;6.87;4.80;;;26.70;85.60;;;;;;6272259;22;20438;-71
2022/05/08 12:11:56;;;;;;;4.63;4.23;;;26.50;88.70;;;;;;6273007;22;20425;-71
2022/05/08 12:14:32;;;;;;;4.67;4.20;;;26.40;87.40;;;;;;6272612;22;20519;-71
2022/05/08 12:17:00;;;;;;;3.93;3.63;;;26.30;85.90;;;;;;6273046;22;20521;-71
2022/05/08 12:19:27;;;;;;;4.97;3.80;;;26.30;84.20;;;;;;6272478;22;20462;-71
2022/05/08 12:21:55;;;;;;;4.10;3.70;;;26.00;86.40;;;;;;6272643;22;20502;-71
2022/05/08 12:24:23;;;;;;;3.70;3.13;;;25.80;84.90;;;;;;6272879;22;20464;-71
2022/05/08 12:26:51;;;;;;;3.60;3.30;;;25.40;83.00;;;;;;6272329;22;20417;-71
2022/05/08 12:29:19;;;;;;;3.33;3.03;;;24.70;83.20;;;;;;6273469;22;20468;-71
2022/05/08 12:31:47;;;;;;;4.23;3.63;;;24.40;84.20;;;;;;6274116;22;20799;-71
2022/05/08 12:34:13;;;;;;;4.47;3.23;;;24.40;84.30;;;;;;6274321;22;20458;-70
2022/05/08 12:36:42;;;;;;;4.10;3.60;;;24.50;85.90;;;;;;6273241;22;20417;-71
2022/05/08 12:39:10;;;;;;;3.67;3.37;;;24.30;85.50;;;;;;6273164;22;20440;-72
2022/05/08 12:41:38;;;;;;;3.50;3.20;;;24.10;84.90;;;;;;6274144;22;20418;-71
2022/05/08 12:44:06;;;;;;;4.27;3.17;;;24.20;85.30;;;;;;6271473;22;20422;-72
2022/05/08 12:46:34;;;;;;;3.57;3.27;;;24.20;83.90;;;;;;6272567;22;20422;-72
2022/05/08 12:49:04;;;;;;;3.93;3.60;;;24.00;85.30;;;;;;6271753;22;20746;-72
2022/05/08 12:51:32;;;;;;;3.80;3.10;;;24.10;86.00;;;;;;6272877;22;20485;-71
2022/05/08 12:54:01;;;;;;;3.73;3.43;;;24.20;85.70;;;;;;6272599;22;20511;-71
2022/05/08 12:56:29;;;;;;;6.13;3.70;;;24.00;86.30;;;;;;6272108;22;20422;-72
2022/05/08 13:01:42;;;;;;;3.70;3.30;;;24.20;85.80;;;;;;6282626;22;20407;-71
2022/05/08 13:04:08;;;;;;;3.90;3.50;;;24.20;85.20;;;;;;6272507;22;20426;-72
2022/05/08 13:06:35;;;;;;;3.73;3.43;;;24.10;84.50;;;;;;6272788;22;20418;-71
2022/05/08 13:09:03;;;;;;;3.57;3.27;;;23.90;86.70;;;;;;6271326;22;20440;-71
2022/05/08 13:11:30;;;;;;;3.53;3.23;;;23.70;84.70;;;;;;6272207;22;20444;-71